Time;durP1;ratioP1;P1;durP2;ratioP2;P2;SDS_P1;SDS_P2;PMS_P1;PMS_P2;Temp;Humidity;BMP_temperature;BMP_pressure;BME280_temperature;BME280_humidity;BME280_pressure;Samples;Min_cycle;Max_cycle;Signal;HPM_P1;HPM_P2
2021/11/12 00:12:46;;;;;;;56.92;28.65;;;;;;;;;;5045425;28;20526;-71
2021/11/12 00:15:13;;;;;;;56.15;30.05;;;;;;;;;;5037394;28;20052;-73
2021/11/12 00:17:40;;;;;;;56.05;27.05;;;;;;;;;;5043302;28;20055;-72
2021/11/12 00:20:07;;;;;;;52.22;27.95;;;;;;;;;;5044384;28;20435;-72
2021/11/12 00:22:34;;;;;;;53.60;28.73;;;;;;;;;;5031485;28;20271;-72
2021/11/12 00:25:02;;;;;;;53.10;26.55;;;;;;;;;;5045954;28;20052;-72
2021/11/12 00:27:29;;;;;;;55.57;26.83;;;;;;;;;;5038161;28;20060;-72
2021/11/12 00:40:26;;;;;;;54.55;29.35;;;;;;;;;;5046183;28;20055;-71
2021/11/12 00:45:34;;;;;;;69.38;30.10;;;;;;;;;;5042620;28;20053;-71
2021/11/12 00:55:38;;;;;;;56.35;29.13;;;;;;;;;;5037102;28;20056;-71
2021/11/12 00:58:06;;;;;;;57.58;29.35;;;;;;;;;;5046690;28;20048;-70
2021/11/12 01:00:32;;;;;;;54.42;27.60;;;;;;;;;;5021889;28;20052;-71
2021/11/12 01:02:59;;;;;;;53.05;28.77;;;;;;;;;;5041564;28;20045;-70
2021/11/12 01:05:26;;;;;;;55.00;29.65;;;;;;;;;;5041532;28;20059;-71
2021/11/12 01:07:52;;;;;;;54.80;28.70;;;;;;;;;;5036305;28;20429;-71
2021/11/12 01:10:19;;;;;;;53.40;28.52;;;;;;;;;;5046551;28;20140;-70
2021/11/12 01:12:48;;;;;;;60.58;29.33;;;;;;;;;;5038713;28;20059;-71
2021/11/12 01:15:18;;;;;;;60.88;30.17;;;;;;;;;;5046390;28;20049;-70
2021/11/12 01:17:45;;;;;;;53.65;29.38;;;;;;;;;;5028853;28;20373;-70
2021/11/12 01:20:12;;;;;;;59.50;29.08;;;;;;;;;;5046930;28;20044;-70
2021/11/12 01:22:39;;;;;;;53.13;27.42;;;;;;;;;;5050795;28;20063;-70
2021/11/12 01:25:07;;;;;;;58.22;27.92;;;;;;;;;;5042110;28;20049;-70
2021/11/12 01:27:34;;;;;;;64.10;30.03;;;;;;;;;;5049135;28;20286;-70
2021/11/12 01:30:00;;;;;;;61.80;29.85;;;;;;;;;;5038707;28;20053;-70
2021/11/12 01:32:27;;;;;;;56.55;29.80;;;;;;;;;;5043052;28;20281;-70
2021/11/12 01:34:55;;;;;;;59.65;27.85;;;;;;;;;;5041912;28;20531;-70
2021/11/12 01:37:24;;;;;;;51.35;28.23;;;;;;;;;;5049355;28;20060;-70
2021/11/12 01:39:55;;;;;;;59.47;29.25;;;;;;;;;;5048299;28;20573;-70
2021/11/12 01:42:22;;;;;;;64.30;28.40;;;;;;;;;;5041313;28;20052;-70
2021/11/12 01:44:57;;;;;;;58.78;30.42;;;;;;;;;;5044360;28;20057;-70
2021/11/12 01:47:32;;;;;;;61.70;30.25;;;;;;;;;;5034628;28;20048;-69
2021/11/12 01:50:10;;;;;;;58.92;28.52;;;;;;;;;;5048959;28;21024;-70
2021/11/12 01:52:43;;;;;;;59.58;28.35;;;;;;;;;;5040854;28;20136;-70
2021/11/12 01:55:17;;;;;;;60.75;29.02;;;;;;;;;;5048987;28;20423;-70
2021/11/12 02:00:29;;;;;;;56.63;27.05;;;;;;;;;;5044348;28;20549;-70
2021/11/12 02:02:59;;;;;;;56.28;27.35;;;;;;;;;;5047567;28;20107;-70
2021/11/12 02:05:26;;;;;;;58.92;29.77;;;;;;;;;;5043154;28;20057;-70
2021/11/12 02:07:53;;;;;;;56.13;28.98;;;;;;;;;;5047587;28;20053;-71
2021/11/12 02:10:24;;;;;;;57.70;28.83;;;;;;;;;;5043248;28;20049;-70
2021/11/12 02:13:05;;;;;;;53.67;27.92;;;;;;;;;;5050356;28;20082;-69
2021/11/12 02:15:33;;;;;;;54.70;28.52;;;;;;;;;;5058695;28;20576;-69
2021/11/12 02:18:03;;;;;;;59.88;29.27;;;;;;;;;;5069999;28;20485;-69
2021/11/12 02:20:38;;;;;;;61.95;30.33;;;;;;;;;;5055404;28;20068;-69
2021/11/12 02:23:05;;;;;;;55.22;28.70;;;;;;;;;;5049857;28;20086;-70
2021/11/12 02:25:38;;;;;;;59.53;26.60;;;;;;;;;;5047391;28;20049;-70
2021/11/12 02:28:10;;;;;;;53.67;27.02;;;;;;;;;;5037387;28;20053;-70
2021/11/12 02:30:37;;;;;;;58.42;28.33;;;;;;;;;;5048014;28;20056;-70
2021/11/12 02:33:10;;;;;;;58.80;29.42;;;;;;;;;;5043300;28;20053;-70
2021/11/12 02:35:41;;;;;;;63.60;29.83;;;;;;;;;;5049198;28;20056;-70
2021/11/12 02:38:07;;;;;;;57.83;28.52;;;;;;;;;;5042585;28;20040;-70
2021/11/12 02:40:34;;;;;;;63.53;27.75;;;;;;;;;;5044962;28;20049;-70
2021/11/12 02:43:02;;;;;;;64.30;27.52;;;;;;;;;;5039038;28;20061;-70
2021/11/12 02:45:29;;;;;;;59.85;28.10;;;;;;;;;;5048914;28;20072;-70
2021/11/12 02:47:56;;;;;;;59.08;28.58;;;;;;;;;;5049239;28;20052;-70
2021/11/12 02:50:22;;;;;;;60.50;29.30;;;;;;;;;;5042713;28;20394;-70
2021/11/12 02:52:56;;;;;;;49.45;25.67;;;;;;;;;;5048314;28;20052;-70
2021/11/12 02:55:23;;;;;;;54.50;28.38;;;;;;;;;;5034736;28;20408;-70
2021/11/12 02:57:50;;;;;;;67.82;28.73;;;;;;;;;;5047850;28;20072;-71
2021/11/12 03:00:20;;;;;;;61.15;26.70;;;;;;;;;;5042907;28;20064;-70
2021/11/12 03:02:46;;;;;;;57.10;27.98;;;;;;;;;;5028637;28;20049;-71
2021/11/12 03:05:12;;;;;;;61.17;28.02;;;;;;;;;;5029343;28;20056;-71
2021/11/12 03:07:39;;;;;;;61.75;28.40;;;;;;;;;;5015667;28;20104;-72
2021/11/12 03:10:06;;;;;;;61.30;28.50;;;;;;;;;;5025032;28;20049;-70
2021/11/12 03:12:32;;;;;;;60.85;29.33;;;;;;;;;;5023860;28;20149;-69
2021/11/12 03:14:58;;;;;;;60.67;28.88;;;;;;;;;;5048961;28;20483;-70
2021/11/12 03:17:25;;;;;;;59.42;28.27;;;;;;;;;;5041651;28;20387;-69
2021/11/12 03:19:52;;;;;;;58.90;29.13;;;;;;;;;;5047974;28;20391;-70
2021/11/12 03:22:20;;;;;;;61.53;29.13;;;;;;;;;;5044448;28;20059;-70
2021/11/12 03:27:23;;;;;;;60.58;28.83;;;;;;;;;;5048714;28;20064;-70
2021/11/12 04:19:07;;;;;;;58.22;28.30;;;;;;;;;;5042352;28;20136;-70
2021/11/12 04:21:49;;;;;;;52.58;26.67;;;;;;;;;;5040184;28;20053;-70
2021/11/12 05:49:42;;;;;;;34.00;20.02;;;;;;;;;;5044754;28;20789;-69
2021/11/12 05:57:09;;;;;;;38.10;20.95;;;;;;;;;;5041109;28;20048;-69
2021/11/12 05:59:35;;;;;;;33.00;20.02;;;;;;;;;;5051081;28;20059;-69
2021/11/12 06:02:04;;;;;;;32.50;19.38;;;;;;;;;;5043586;28;20553;-70
2021/11/12 06:04:31;;;;;;;33.90;19.30;;;;;;;;;;5048691;28;20053;-69
2021/11/12 06:06:58;;;;;;;36.45;19.55;;;;;;;;;;5047723;28;20063;-70
2021/11/12 06:09:24;;;;;;;37.80;21.50;;;;;;;;;;5037226;28;20574;-69
2021/11/12 06:11:53;;;;;;;37.33;19.55;;;;;;;;;;5051261;28;20049;-70
2021/11/12 06:14:23;;;;;;;35.60;19.70;;;;;;;;;;5042703;28;20512;-70
2021/11/12 06:16:50;;;;;;;36.55;20.85;;;;;;;;;;5051885;28;20493;-69
2021/11/12 06:19:16;;;;;;;34.53;21.02;;;;;;;;;;5046359;28;20243;-69
2021/11/12 06:21:43;;;;;;;33.78;19.42;;;;;;;;;;5047160;28;20056;-70
2021/11/12 06:24:10;;;;;;;32.03;19.52;;;;;;;;;;5047705;28;20044;-70
2021/11/12 06:26:37;;;;;;;38.47;19.77;;;;;;;;;;5045522;28;20048;-70
2021/11/12 06:29:03;;;;;;;37.92;21.50;;;;;;;;;;5034149;28;20044;-70
2021/11/12 06:31:30;;;;;;;35.20;19.27;;;;;;;;;;5043739;28;20060;-71
2021/11/12 06:33:56;;;;;;;40.60;21.20;;;;;;;;;;5052034;28;20058;-71
2021/11/12 06:36:24;;;;;;;38.80;19.35;;;;;;;;;;5041710;28;20053;-71
2021/11/12 06:38:51;;;;;;;32.30;18.63;;;;;;;;;;5049253;28;20049;-71
2021/11/12 06:41:37;;;;;;;;;;;;;;;;;;5053440;28;20049;-70
2021/11/12 06:49:52;;;;;;;36.63;19.20;;;;;;;;;;5038239;28;20037;-70
2021/11/12 06:52:19;;;;;;;36.38;18.67;;;;;;;;;;5044700;28;20053;-70
2021/11/12 06:54:46;;;;;;;38.40;20.55;;;;;;;;;;5043669;28;20056;-70
2021/11/12 06:57:13;;;;;;;37.90;21.02;;;;;;;;;;5050433;28;20048;-70
2021/11/12 06:59:39;;;;;;;36.70;20.75;;;;;;;;;;5039054;28;20053;-70
2021/11/12 07:02:08;;;;;;;41.35;21.63;;;;;;;;;;5051136;28;20052;-70
2021/11/12 07:04:35;;;;;;;33.08;17.98;;;;;;;;;;5040276;28;20045;-70
2021/11/12 07:07:02;;;;;;;39.92;20.90;;;;;;;;;;5046365;28;20041;-70
2021/11/12 07:09:28;;;;;;;35.30;20.35;;;;;;;;;;5051482;28;20687;-71
2021/11/12 07:11:54;;;;;;;31.83;19.20;;;;;;;;;;5044041;28;20933;-70
2021/11/12 07:14:21;;;;;;;39.35;21.17;;;;;;;;;;5051098;28;20052;-71
2021/11/12 07:16:47;;;;;;;37.80;18.60;;;;;;;;;;5041604;28;20063;-70
2021/11/12 07:19:13;;;;;;;34.95;19.60;;;;;;;;;;5044901;28;20108;-70
2021/11/12 07:21:40;;;;;;;37.10;19.80;;;;;;;;;;5049098;28;20057;-69
2021/11/12 07:24:07;;;;;;;33.20;17.77;;;;;;;;;;5026370;28;20045;-70
2021/11/12 07:26:33;;;;;;;40.10;20.90;;;;;;;;;;5030294;28;20066;-70
2021/11/12 07:29:00;;;;;;;39.00;21.23;;;;;;;;;;5023704;28;20053;-70
2021/11/12 07:31:40;;;;;;;43.75;20.83;;;;;;;;;;5026462;28;20049;-70
2021/11/12 07:34:08;;;;;;;40.53;21.23;;;;;;;;;;5019741;28;20056;-70
2021/11/12 07:36:36;;;;;;;34.55;20.02;;;;;;;;;;5029842;28;20498;-70
2021/11/12 07:39:14;;;;;;;39.10;20.00;;;;;;;;;;5031347;28;20059;-70
2021/11/12 07:49:27;;;;;;;36.53;19.33;;;;;;;;;;5030237;28;20132;-70
2021/11/12 07:51:53;;;;;;;38.80;19.70;;;;;;;;;;5023887;28;20425;-69
2021/11/12 07:54:20;;;;;;;33.85;19.77;;;;;;;;;;5034576;28;20128;-70
2021/11/12 07:56:46;;;;;;;41.78;21.25;;;;;;;;;;5022930;28;20045;-70
2021/11/12 07:59:12;;;;;;;37.10;20.25;;;;;;;;;;5028421;28;20050;-70
2021/11/12 08:01:40;;;;;;;38.28;19.85;;;;;;;;;;5029869;28;20495;-70
2021/11/12 08:04:07;;;;;;;41.75;21.25;;;;;;;;;;5031670;28;20236;-70
2021/11/12 08:06:34;;;;;;;39.90;21.30;;;;;;;;;;5030578;28;20061;-70
2021/11/12 08:09:10;;;;;;;38.15;21.13;;;;;;;;;;5029937;28;20477;-69
2021/11/12 08:11:50;;;;;;;43.30;21.52;;;;;;;;;;5039897;28;20048;-70
2021/11/12 08:17:02;;;;;;;37.67;21.70;;;;;;;;;;5048268;28;20049;-70
2021/11/12 08:19:42;;;;;;;40.55;19.63;;;;;;;;;;5042201;28;20053;-69
2021/11/12 08:22:15;;;;;;;38.97;20.00;;;;;;;;;;5050253;28;20057;-70
2021/11/12 08:27:58;;;;;;;45.42;22.35;;;;;;;;;;5025068;28;20067;-70
2021/11/12 08:33:12;;;;;;;47.65;23.63;;;;;;;;;;5048076;28;20048;-69
2021/11/12 08:36:16;;;;;;;42.75;22.08;;;;;;;;;;5041222;28;20076;-69
2021/11/12 08:39:03;;;;;;;44.20;23.02;;;;;;;;;;5047278;28;20044;-69
2021/11/12 08:41:41;;;;;;;47.33;23.15;;;;;;;;;;5035942;28;20143;-70
2021/11/12 08:44:21;;;;;;;48.05;23.50;;;;;;;;;;5046571;28;20052;-70
2021/11/12 08:46:52;;;;;;;48.92;23.55;;;;;;;;;;5047072;28;20048;-70
2021/11/12 08:49:25;;;;;;;46.92;22.30;;;;;;;;;;5048698;28;20092;-70
2021/11/12 08:51:52;;;;;;;50.92;23.58;;;;;;;;;;5050446;28;20045;-70
2021/11/12 08:54:24;;;;;;;49.58;23.08;;;;;;;;;;5039254;28;20041;-69
2021/11/12 08:56:52;;;;;;;42.88;22.02;;;;;;;;;;5046430;28;20065;-70
2021/11/12 08:59:19;;;;;;;46.78;24.35;;;;;;;;;;5042137;28;20061;-69
2021/11/12 09:01:45;;;;;;;42.55;23.95;;;;;;;;;;5052157;28;20045;-70
2021/11/12 09:04:13;;;;;;;52.50;23.27;;;;;;;;;;5043546;28;20136;-70
2021/11/12 09:06:39;;;;;;;44.53;23.08;;;;;;;;;;5044534;28;20083;-70
2021/11/12 09:09:06;;;;;;;53.00;25.10;;;;;;;;;;5041764;28;20065;-69
2021/11/12 09:11:32;;;;;;;49.17;24.02;;;;;;;;;;5040250;28;20125;-69
2021/11/12 09:14:02;;;;;;;49.45;24.70;;;;;;;;;;5049110;28;20049;-69
2021/11/12 09:16:33;;;;;;;53.80;25.70;;;;;;;;;;5042606;28;20045;-70
2021/11/12 09:19:01;;;;;;;56.85;26.95;;;;;;;;;;5049998;28;20704;-69
2021/11/12 09:21:27;;;;;;;51.03;25.77;;;;;;;;;;5038548;28;20478;-69
2021/11/12 09:23:54;;;;;;;55.65;27.35;;;;;;;;;;5045342;28;20064;-70
2021/11/12 09:26:21;;;;;;;56.13;24.95;;;;;;;;;;5031704;28;20053;-70
2021/11/12 09:28:48;;;;;;;59.25;27.45;;;;;;;;;;5041138;28;20063;-69
2021/11/12 09:31:15;;;;;;;55.10;25.60;;;;;;;;;;5048412;28;20045;-69
2021/11/12 09:33:42;;;;;;;57.05;26.25;;;;;;;;;;5042043;28;20057;-70
2021/11/12 09:36:09;;;;;;;52.78;25.73;;;;;;;;;;5043891;28;20059;-70
2021/11/12 09:38:37;;;;;;;57.35;26.75;;;;;;;;;;5038419;28;20059;-69
2021/11/12 09:41:04;;;;;;;54.85;26.70;;;;;;;;;;5049558;28;20051;-69
2021/11/12 09:43:30;;;;;;;55.03;25.52;;;;;;;;;;5051214;28;20049;-69
2021/11/12 09:45:57;;;;;;;48.95;24.15;;;;;;;;;;5042947;28;20044;-69
2021/11/12 09:48:24;;;;;;;55.75;26.42;;;;;;;;;;5047152;28;20057;-70
2021/11/12 09:50:51;;;;;;;61.42;27.48;;;;;;;;;;5038742;28;20048;-69
2021/11/12 09:53:18;;;;;;;50.60;25.88;;;;;;;;;;5051786;28;20048;-70
2021/11/12 09:55:45;;;;;;;60.30;26.02;;;;;;;;;;5042761;28;20048;-69
2021/11/12 09:58:11;;;;;;;60.63;25.75;;;;;;;;;;5053698;28;20045;-69
2021/11/12 10:00:39;;;;;;;62.05;25.92;;;;;;;;;;5053120;28;20402;-70
2021/11/12 10:03:08;;;;;;;60.60;26.87;;;;;;;;;;5038462;28;20175;-69
2021/11/12 10:05:40;;;;;;;57.75;25.45;;;;;;;;;;5049044;28;20044;-69
2021/11/12 10:08:25;;;;;;;58.13;25.15;;;;;;;;;;5043735;28;20056;-70
2021/11/12 10:10:53;;;;;;;57.35;25.80;;;;;;;;;;5050078;28;20412;-70
2021/11/12 10:13:25;;;;;;;58.08;27.65;;;;;;;;;;5043696;28;20055;-70
2021/11/12 10:15:53;;;;;;;53.22;25.40;;;;;;;;;;5045297;28;20469;-70
2021/11/12 10:18:19;;;;;;;49.95;23.58;;;;;;;;;;5040173;28;20340;-69
2021/11/12 10:20:59;;;;;;;54.13;25.75;;;;;;;;;;5049709;28;20059;-69
2021/11/12 10:23:30;;;;;;;50.22;25.10;;;;;;;;;;5051084;28;20049;-69
2021/11/12 10:26:00;;;;;;;57.42;24.02;;;;;;;;;;5043225;28;20056;-69
2021/11/12 10:28:37;;;;;;;52.60;25.98;;;;;;;;;;5051401;28;20048;-70
2021/11/12 10:31:15;;;;;;;50.50;25.75;;;;;;;;;;5017725;28;20048;-70
2021/11/12 10:33:42;;;;;;;50.17;24.95;;;;;;;;;;5050852;28;20391;-69
2021/11/12 10:36:09;;;;;;;52.38;26.73;;;;;;;;;;5042298;28;20068;-71
2021/11/12 10:38:36;;;;;;;52.58;24.38;;;;;;;;;;5049984;28;20040;-69
2021/11/12 10:41:13;;;;;;;51.08;25.45;;;;;;;;;;5046438;28;20048;-71
2021/11/12 10:43:40;;;;;;;47.35;23.63;;;;;;;;;;5029996;28;20041;-70
2021/11/12 10:46:06;;;;;;;59.22;27.60;;;;;;;;;;5045631;28;20072;-69
2021/11/12 10:48:33;;;;;;;54.90;27.25;;;;;;;;;;5043176;28;20482;-69
2021/11/12 10:51:16;;;;;;;55.47;26.05;;;;;;;;;;5052346;28;20657;-69
2021/11/12 10:53:49;;;;;;;55.30;26.50;;;;;;;;;;5044311;28;20056;-69
2021/11/12 10:56:15;;;;;;;48.85;26.75;;;;;;;;;;5047719;28;20063;-69
2021/11/12 10:58:58;;;;;;;50.80;25.38;;;;;;;;;;5035094;28;20059;-69
2021/11/12 11:01:35;;;;;;;47.55;24.08;;;;;;;;;;5050077;28;20068;-69
2021/11/12 11:04:21;;;;;;;49.60;25.17;;;;;;;;;;5045593;28;20040;-70
2021/11/12 11:06:49;;;;;;;52.70;26.17;;;;;;;;;;5048879;28;20041;-69
2021/11/12 11:09:15;;;;;;;52.17;25.90;;;;;;;;;;5049544;28;20049;-69
2021/11/12 11:11:45;;;;;;;53.75;26.10;;;;;;;;;;5036041;28;20645;-70
2021/11/12 11:14:27;;;;;;;57.42;27.20;;;;;;;;;;5049216;28;20041;-69
2021/11/12 11:16:55;;;;;;;60.40;29.05;;;;;;;;;;5041684;28;20057;-69
2021/11/12 11:19:35;;;;;;;60.22;28.65;;;;;;;;;;5050262;28;20135;-69
2021/11/12 11:22:10;;;;;;;54.53;27.10;;;;;;;;;;5041378;28;20049;-69
2021/11/12 11:24:36;;;;;;;54.20;28.20;;;;;;;;;;5049987;28;20052;-70
2021/11/12 11:27:04;;;;;;;52.00;26.20;;;;;;;;;;5042896;28;20140;-69
2021/11/12 11:29:30;;;;;;;54.05;25.35;;;;;;;;;;5049891;28;20083;-69
2021/11/12 11:31:58;;;;;;;52.78;26.95;;;;;;;;;;5048127;28;20060;-70
2021/11/12 11:34:25;;;;;;;53.35;29.20;;;;;;;;;;5036692;28;20266;-69
2021/11/12 11:36:55;;;;;;;56.50;28.10;;;;;;;;;;5044826;28;20044;-69
2021/11/12 11:39:22;;;;;;;54.17;27.35;;;;;;;;;;5043823;28;20539;-69
2021/11/12 11:41:48;;;;;;;52.58;25.42;;;;;;;;;;5050762;28;20052;-69
2021/11/12 11:44:15;;;;;;;49.60;26.80;;;;;;;;;;5043816;28;20045;-69
2021/11/12 11:46:45;;;;;;;52.78;26.58;;;;;;;;;;5059771;28;20756;-69
2021/11/12 11:49:12;;;;;;;55.63;27.55;;;;;;;;;;5054202;28;20040;-69
2021/11/12 11:51:46;;;;;;;50.83;25.45;;;;;;;;;;5047396;28;20049;-69
2021/11/12 11:54:13;;;;;;;48.17;25.08;;;;;;;;;;5061533;28;20049;-69
2021/11/12 11:56:44;;;;;;;51.28;27.73;;;;;;;;;;5053738;28;20078;-69
2021/11/12 11:59:23;;;;;;;49.65;25.58;;;;;;;;;;5062935;28;20413;-69
2021/11/12 12:01:54;;;;;;;52.88;25.75;;;;;;;;;;5053881;28;20060;-70
2021/11/12 12:04:23;;;;;;;54.75;26.67;;;;;;;;;;5050715;28;20040;-70
2021/11/12 12:07:01;;;;;;;54.53;26.58;;;;;;;;;;5051767;28;20865;-70
2021/11/12 12:09:50;;;;;;;54.03;28.13;;;;;;;;;;5059168;28;20044;-69
2021/11/12 12:12:29;;;;;;;52.58;26.10;;;;;;;;;;5060592;28;20048;-69
2021/11/12 12:14:55;;;;;;;;;;;;;;;;;;5053836;28;20052;-69
2021/11/12 12:17:25;;;;;;;51.17;25.60;;;;;;;;;;5055080;28;19936;-70
2021/11/12 12:20:04;;;;;;;50.83;25.83;;;;;;;;;;5047088;28;20052;-70
2021/11/12 12:31:01;;;;;;;51.58;27.20;;;;;;;;;;5044546;28;20052;-69
2021/11/12 12:33:59;;;;;;;55.17;27.48;;;;;;;;;;5053333;28;20056;-70
2021/11/12 13:22:33;;;;;;;52.63;26.23;;;;;;;;;;5056441;28;20059;-70
2021/11/12 13:24:36;;;;;;;51.90;25.60;;;;;;;;;;5058040;28;20436;-69
2021/11/12 13:27:04;;;;;;;50.53;27.05;;;;;;;;;;5033582;28;20501;-69
2021/11/12 13:29:31;;;;;;;52.45;26.45;;;;;;;;;;5057617;28;20048;-69
2021/11/12 13:32:02;;;;;;;52.50;26.90;;;;;;;;;;5062603;28;20135;-70
2021/11/12 13:34:38;;;;;;;51.65;24.77;;;;;;;;;;5054480;28;20052;-70
2021/11/12 13:37:13;;;;;;;58.90;29.17;;;;;;;;;;5043442;28;20048;-70
2021/11/12 13:39:40;;;;;;;60.53;28.95;;;;;;;;;;5034704;28;20052;-70
2021/11/12 13:42:09;;;;;;;59.60;28.33;;;;;;;;;;5052190;28;20052;-70
2021/11/12 13:44:38;;;;;;;53.38;28.48;;;;;;;;;;5053537;28;20044;-70
2021/11/12 13:47:11;;;;;;;54.08;25.67;;;;;;;;;;5061657;28;20052;-70
2021/11/12 13:49:55;;;;;;;55.85;27.98;;;;;;;;;;5061734;28;20064;-70
2021/11/12 13:52:23;;;;;;;51.55;26.63;;;;;;;;;;5060860;28;20083;-70
2021/11/12 13:54:53;;;;;;;57.80;27.60;;;;;;;;;;5056188;28;20048;-70
2021/11/12 13:57:20;;;;;;;53.53;25.58;;;;;;;;;;5047802;28;20128;-70
2021/11/12 13:59:54;;;;;;;54.17;26.48;;;;;;;;;;5061931;28;20408;-70
2021/11/12 14:02:21;;;;;;;53.55;28.00;;;;;;;;;;5054228;28;20434;-70
2021/11/12 14:04:48;;;;;;;57.25;27.17;;;;;;;;;;5060492;28;20094;-70
2021/11/12 14:07:15;;;;;;;59.80;28.05;;;;;;;;;;5053386;28;20059;-70
2021/11/12 14:09:42;;;;;;;56.80;27.88;;;;;;;;;;5053932;28;20045;-69
2021/11/12 14:12:11;;;;;;;55.30;25.92;;;;;;;;;;5056958;28;20052;-70
2021/11/12 14:14:39;;;;;;;57.20;27.25;;;;;;;;;;5052012;28;20052;-70
2021/11/12 14:17:15;;;;;;;54.30;26.88;;;;;;;;;;5061169;28;20129;-69
2021/11/12 14:22:34;;;;;;;56.03;27.67;;;;;;;;;;5056791;28;20360;-70
2021/11/12 14:25:20;;;;;;;53.30;26.55;;;;;;;;;;5048259;28;20064;-70
2021/11/12 14:27:56;;;;;;;64.15;27.80;;;;;;;;;;5060601;28;20052;-70
2021/11/12 14:30:56;;;;;;;55.47;26.20;;;;;;;;;;5055911;28;20054;-70
2021/11/12 14:36:13;;;;;;;60.08;28.02;;;;;;;;;;5049747;28;20044;-70
2021/11/12 14:38:52;;;;;;;52.78;26.38;;;;;;;;;;5055775;28;20049;-69
2021/11/12 14:41:48;;;;;;;55.35;25.63;;;;;;;;;;5053855;28;20510;-69
2021/11/12 14:47:15;;;;;;;58.17;27.75;;;;;;;;;;5055476;28;20402;-69
2021/11/12 14:49:53;;;;;;;55.60;27.63;;;;;;;;;;5058495;28;20477;-69
2021/11/12 14:52:24;;;;;;;52.45;25.88;;;;;;;;;;5054356;28;20067;-69
2021/11/12 14:54:56;;;;;;;54.67;27.80;;;;;;;;;;5056706;28;20508;-69
2021/11/12 14:59:51;;;;;;;54.72;27.27;;;;;;;;;;5050620;28;20516;-69
2021/11/12 15:02:18;;;;;;;48.58;25.92;;;;;;;;;;5059408;28;20053;-69
2021/11/12 15:04:45;;;;;;;57.75;28.15;;;;;;;;;;5049880;28;20159;-69
2021/11/12 15:07:14;;;;;;;53.88;26.50;;;;;;;;;;5055593;28;20048;-69
2021/11/12 15:09:41;;;;;;;55.20;27.23;;;;;;;;;;5051496;28;20048;-69
2021/11/12 15:12:10;;;;;;;56.28;28.52;;;;;;;;;;5059299;28;20501;-69
2021/11/12 15:14:45;;;;;;;57.13;27.57;;;;;;;;;;5058537;28;20052;-69
2021/11/12 15:17:13;;;;;;;48.90;26.33;;;;;;;;;;5051409;28;20289;-69
2021/11/12 15:19:42;;;;;;;47.70;25.27;;;;;;;;;;5052932;28;20789;-69
2021/11/12 15:22:37;;;;;;;55.80;28.08;;;;;;;;;;5047601;28;20044;-69
2021/11/12 15:25:14;;;;;;;54.50;26.77;;;;;;;;;;5060127;28;20371;-69
2021/11/12 15:31:03;;;;;;;50.63;26.40;;;;;;;;;;5020101;28;20076;-69
2021/11/12 15:33:24;;;;;;;56.78;27.00;;;;;;;;;;5044991;28;20049;-69
2021/11/12 15:35:51;;;;;;;46.92;26.00;;;;;;;;;;5053719;28;20053;-69
2021/11/12 15:39:27;;;;;;;46.05;25.42;;;;;;;;;;5051127;28;20056;-69
2021/11/12 15:46:44;;;;;;;55.17;28.05;;;;;;;;;;5057309;28;20074;-69
2021/11/12 15:49:11;;;;;;;58.58;28.08;;;;;;;;;;5055654;28;20425;-69
2021/11/12 15:51:41;;;;;;;49.67;26.42;;;;;;;;;;5056125;28;20055;-69
2021/11/12 15:59:44;;;;;;;56.95;28.40;;;;;;;;;;5060733;28;20051;-69
2021/11/12 16:07:31;;;;;;;53.88;26.65;;;;;;;;;;5049227;28;20048;-69
2021/11/12 16:10:18;;;;;;;48.95;25.55;;;;;;;;;;5058589;28;20059;-69
2021/11/12 16:15:43;;;;;;;54.03;25.65;;;;;;;;;;5026923;28;20281;-69
2021/11/12 16:23:47;;;;;;;55.58;27.20;;;;;;;;;;5054563;28;21288;-69
2021/11/12 16:26:16;;;;;;;55.15;26.85;;;;;;;;;;5059828;28;20052;-69
2021/11/12 16:28:55;;;;;;;49.00;25.35;;;;;;;;;;5055483;28;20056;-69
2021/11/12 16:31:22;;;;;;;47.72;24.50;;;;;;;;;;5047125;28;20048;-69
2021/11/12 16:33:49;;;;;;;49.83;25.83;;;;;;;;;;5062118;28;20087;-69
2021/11/12 16:36:16;;;;;;;52.42;26.13;;;;;;;;;;5054456;28;20056;-69
2021/11/12 16:38:43;;;;;;;56.78;26.23;;;;;;;;;;5058623;28;20059;-69
2021/11/12 16:41:13;;;;;;;50.00;24.92;;;;;;;;;;5052578;28;20044;-69
2021/11/12 16:59:51;;;;;;;43.67;23.05;;;;;;;;;;5054161;28;20501;-69
2021/11/12 17:02:25;;;;;;;49.53;24.58;;;;;;;;;;5064829;28;20490;-69
2021/11/12 17:04:59;;;;;;;44.10;23.25;;;;;;;;;;5058136;28;20481;-69
2021/11/12 17:17:44;;;;;;;45.58;21.92;;;;;;;;;;5062244;28;20048;-71
2021/11/12 17:20:37;;;;;;;43.10;21.20;;;;;;;;;;5059160;28;20068;-70
2021/11/12 17:47:47;;;;;;;43.60;21.65;;;;;;;;;;5061378;28;20048;-70
2021/11/12 18:03:52;;;;;;;37.65;19.02;;;;;;;;;;4997083;28;20056;-70
2021/11/12 18:06:29;;;;;;;38.97;21.08;;;;;;;;;;4985885;28;20053;-70
2021/11/12 18:09:20;;;;;;;38.88;19.08;;;;;;;;;;5029132;28;20049;-71
2021/11/12 18:14:43;;;;;;;34.95;17.65;;;;;;;;;;5058320;28;20052;-70
2021/11/12 18:22:27;;;;;;;36.58;18.55;;;;;;;;;;5054131;28;20055;-70
2021/11/12 21:45:28;;;;;;;27.30;13.10;;;;;;;;;;5055049;28;20059;-70
2021/11/12 21:47:55;;;;;;;23.73;12.75;;;;;;;;;;5054966;28;20053;-70
2021/11/12 21:50:21;;;;;;;22.40;12.40;;;;;;;;;;5052133;28;20048;-70
2021/11/12 21:52:48;;;;;;;22.60;12.88;;;;;;;;;;5059756;28;20052;-70
2021/11/12 21:55:14;;;;;;;23.63;13.07;;;;;;;;;;5052314;28;20048;-70
2021/11/12 21:57:40;;;;;;;24.95;14.20;;;;;;;;;;5042266;28;21264;-70
2021/11/12 22:00:08;;;;;;;26.88;15.15;;;;;;;;;;5047692;28;20048;-71
2021/11/12 22:02:34;;;;;;;31.98;15.88;;;;;;;;;;5055308;28;20056;-70
2021/11/12 22:05:00;;;;;;;28.08;14.98;;;;;;;;;;5060175;28;20417;-70
2021/11/12 22:07:26;;;;;;;29.52;14.65;;;;;;;;;;5051344;28;20044;-70
2021/11/12 22:09:53;;;;;;;29.42;16.27;;;;;;;;;;5059154;28;20429;-70
2021/11/12 22:12:19;;;;;;;34.65;15.13;;;;;;;;;;5050259;28;20048;-70
2021/11/12 22:14:45;;;;;;;29.77;15.50;;;;;;;;;;5051650;28;20325;-70
2021/11/12 22:17:13;;;;;;;28.23;14.43;;;;;;;;;;5049659;28;20051;-70
2021/11/12 22:19:39;;;;;;;25.73;15.00;;;;;;;;;;5058809;28;20044;-70
2021/11/12 22:22:06;;;;;;;26.95;15.48;;;;;;;;;;5060719;28;20054;-70
2021/11/12 22:24:33;;;;;;;25.38;13.75;;;;;;;;;;5033057;28;20698;-70
2021/11/12 22:26:59;;;;;;;31.02;16.10;;;;;;;;;;5054796;28;20108;-69
2021/11/12 22:29:25;;;;;;;25.10;12.75;;;;;;;;;;5046145;28;20059;-71
2021/11/12 22:31:53;;;;;;;30.98;14.85;;;;;;;;;;5055725;28;20160;-70
2021/11/12 22:34:39;;;;;;;30.85;15.13;;;;;;;;;;5050097;28;20122;-70
2021/11/12 22:37:06;;;;;;;31.65;15.18;;;;;;;;;;5059159;28;20079;-70
2021/11/12 22:39:32;;;;;;;32.85;15.30;;;;;;;;;;5054318;28;20048;-70
2021/11/12 22:41:59;;;;;;;31.17;15.73;;;;;;;;;;5052232;28;20289;-70
2021/11/12 22:44:25;;;;;;;25.45;14.65;;;;;;;;;;5057862;28;20487;-70
2021/11/12 22:46:51;;;;;;;30.38;15.57;;;;;;;;;;5051422;28;20075;-71
2021/11/12 22:49:17;;;;;;;32.22;15.15;;;;;;;;;;5058800;28;20056;-71
2021/11/12 22:51:44;;;;;;;33.45;15.23;;;;;;;;;;5051127;28;20048;-70
2021/11/12 22:54:10;;;;;;;28.67;15.77;;;;;;;;;;5058049;28;20044;-71
2021/11/12 22:56:41;;;;;;;28.17;15.18;;;;;;;;;;5053445;28;20133;-71
2021/11/12 22:59:08;;;;;;;25.88;15.55;;;;;;;;;;5057285;28;20044;-70
2021/11/12 23:01:34;;;;;;;32.45;16.48;;;;;;;;;;5039454;28;20068;-71
2021/11/12 23:04:01;;;;;;;32.13;15.82;;;;;;;;;;5049880;28;20040;-71
2021/11/12 23:06:27;;;;;;;30.40;16.13;;;;;;;;;;5051979;28;20040;-71
2021/11/12 23:08:54;;;;;;;32.00;16.70;;;;;;;;;;5048874;28;20055;-71
2021/11/12 23:11:20;;;;;;;27.17;15.98;;;;;;;;;;5059475;28;20052;-71
2021/11/12 23:13:48;;;;;;;31.92;16.35;;;;;;;;;;5050883;28;20497;-71
2021/11/12 23:16:15;;;;;;;32.33;16.85;;;;;;;;;;5057417;28;20080;-70
2021/11/12 23:18:41;;;;;;;29.83;17.50;;;;;;;;;;5043372;28;20055;-70
2021/11/12 23:21:08;;;;;;;35.83;16.27;;;;;;;;;;5049642;28;20048;-71
2021/11/12 23:23:35;;;;;;;28.75;16.33;;;;;;;;;;5067976;28;20082;-71
2021/11/12 23:26:02;;;;;;;31.83;17.83;;;;;;;;;;5054620;28;20070;-70
2021/11/12 23:28:29;;;;;;;32.90;16.33;;;;;;;;;;5050274;28;20167;-71
2021/11/12 23:30:55;;;;;;;33.40;16.73;;;;;;;;;;5060869;28;20158;-70
2021/11/12 23:33:22;;;;;;;35.38;17.50;;;;;;;;;;5063720;28;20053;-70
2021/11/12 23:35:48;;;;;;;37.20;17.83;;;;;;;;;;5063576;28;20067;-70
2021/11/12 23:38:15;;;;;;;33.78;17.63;;;;;;;;;;5052889;28;20517;-70
2021/11/12 23:40:41;;;;;;;32.67;18.40;;;;;;;;;;5048948;28;20053;-70
2021/11/12 23:43:08;;;;;;;33.58;16.45;;;;;;;;;;5042947;28;20045;-69
2021/11/12 23:45:34;;;;;;;37.47;19.88;;;;;;;;;;5030425;28;20053;-70
2021/11/12 23:48:00;;;;;;;28.73;15.70;;;;;;;;;;5035825;28;20041;-69
2021/11/12 23:50:27;;;;;;;35.13;18.52;;;;;;;;;;5047401;28;20045;-70
2021/11/12 23:52:54;;;;;;;34.17;17.77;;;;;;;;;;5031141;28;20497;-69
2021/11/12 23:55:20;;;;;;;32.38;18.23;;;;;;;;;;5059670;28;20076;-69
2021/11/12 23:57:47;;;;;;;36.67;19.05;;;;;;;;;;5068008;28;20449;-69
